Time;durP1;ratioP1;P1;durP2;ratioP2;P2;SDS_P1;SDS_P2;PMS_P1;PMS_P2;Temp;Humidity;BMP_temperature;BMP_pressure;BME280_temperature;BME280_humidity;BME280_pressure;Samples;Min_cycle;Max_cycle;Signal;HPM_P1;HPM_P2
2023/04/12 00:02:21;;;;;;;6.38;1.45;;;9.70;99.90;;;;;;5039018;28;20061;-70
2023/04/12 00:04:54;;;;;;;4.68;1.38;;;9.70;99.90;;;;;;5039434;28;20033;-70
2023/04/12 00:07:20;;;;;;;15.70;2.53;;;9.80;99.90;;;;;;5039932;28;20074;-69
2023/04/12 00:09:46;;;;;;;6.38;1.20;;;9.70;99.90;;;;;;5038992;28;20022;-70
2023/04/12 00:12:11;;;;;;;6.57;1.40;;;9.70;99.90;;;;;;5038955;28;20026;-70
2023/04/12 00:14:37;;;;;;;11.00;1.42;;;9.80;99.90;;;;;;5039194;28;20032;-70
2023/04/12 00:17:02;;;;;;;5.80;1.42;;;9.80;99.90;;;;;;5039346;28;20029;-70
2023/04/12 00:19:29;;;;;;;6.40;1.20;;;10.00;99.90;;;;;;5039144;28;20033;-69
2023/04/12 00:21:56;;;;;;;5.25;1.40;;;10.00;99.90;;;;;;5038536;28;20022;-71
2023/04/12 00:24:21;;;;;;;6.22;1.30;;;10.00;99.90;;;;;;5039217;28;20029;-71
2023/04/12 00:26:47;;;;;;;9.55;1.50;;;10.10;99.90;;;;;;5039512;28;20091;-72
2023/04/12 00:29:12;;;;;;;3.72;1.45;;;10.20;99.90;;;;;;5039031;28;20018;-72
2023/04/12 00:31:38;;;;;;;4.03;1.35;;;10.20;99.90;;;;;;5038920;28;20112;-71
2023/04/12 00:34:04;;;;;;;3.38;0.85;;;10.20;99.90;;;;;;5038769;28;20029;-71
2023/04/12 00:36:29;;;;;;;9.55;1.30;;;10.10;99.90;;;;;;5039572;28;20029;-71
2023/04/12 00:38:55;;;;;;;8.27;1.30;;;10.10;99.90;;;;;;5039577;28;20022;-72
2023/04/12 00:41:23;;;;;;;10.35;1.50;;;10.00;99.90;;;;;;5038964;28;20030;-74
2023/04/12 00:43:48;;;;;;;4.72;1.10;;;10.10;99.90;;;;;;5039285;28;20033;-74
2023/04/12 00:46:16;;;;;;;7.07;1.50;;;10.10;99.90;;;;;;5038907;28;20032;-74
2023/04/12 00:48:43;;;;;;;7.53;1.95;;;10.20;99.90;;;;;;5038221;28;20025;-74
2023/04/12 00:51:09;;;;;;;7.40;1.50;;;10.40;99.90;;;;;;5038453;28;20045;-74
2023/04/12 00:53:36;;;;;;;3.92;1.00;;;10.40;99.90;;;;;;5038923;28;20021;-74
2023/04/12 00:56:03;;;;;;;3.47;1.08;;;10.40;99.90;;;;;;5038135;28;20096;-74
2023/04/12 00:58:28;;;;;;;1.85;1.15;;;10.50;99.90;;;;;;5038372;28;20083;-74
2023/04/12 01:00:54;;;;;;;8.77;1.58;;;10.50;99.90;;;;;;5038303;28;20017;-74
2023/04/12 01:03:22;;;;;;;4.75;1.63;;;10.60;99.90;;;;;;5039020;28;20109;-74
2023/04/12 01:06:03;;;;;;;6.72;1.42;;;10.50;99.90;;;;;;5037927;28;20036;-74
2023/04/12 01:08:32;;;;;;;9.80;1.50;;;10.60;99.90;;;;;;5038913;28;20030;-74
2023/04/12 01:11:13;;;;;;;5.95;1.13;;;10.70;99.90;;;;;;5037721;28;20096;-74
2023/04/12 01:13:44;;;;;;;4.97;1.10;;;10.70;99.90;;;;;;5037968;28;20037;-74
2023/04/12 01:16:25;;;;;;;8.88;1.20;;;10.60;99.90;;;;;;5038589;28;20052;-74
2023/04/12 01:18:56;;;;;;;4.30;1.40;;;10.50;99.90;;;;;;5038486;28;20037;-74
2023/04/12 01:21:41;;;;;;;6.60;1.70;;;10.40;99.90;;;;;;5038617;28;20025;-74
2023/04/12 01:24:25;;;;;;;4.95;1.38;;;10.40;99.90;;;;;;5038022;28;20033;-74
2023/04/12 01:26:53;;;;;;;9.13;1.67;;;10.30;99.90;;;;;;5038526;28;20108;-74
2023/04/12 01:29:21;;;;;;;3.17;1.20;;;10.30;99.90;;;;;;5037752;28;20049;-74
2023/04/12 01:31:57;;;;;;;5.30;1.33;;;10.40;99.90;;;;;;5038341;28;20085;-74
2023/04/12 01:34:25;;;;;;;5.60;1.30;;;10.30;99.90;;;;;;5036568;28;20036;-74
2023/04/12 01:36:51;;;;;;;9.18;1.75;;;10.30;99.90;;;;;;5037865;28;20029;-74
2023/04/12 01:39:17;;;;;;;4.68;1.92;;;10.20;99.90;;;;;;5037465;28;20042;-74
2023/04/12 01:41:44;;;;;;;5.07;1.30;;;10.30;99.90;;;;;;5038010;28;20040;-74
2023/04/12 01:44:14;;;;;;;4.15;1.10;;;10.30;99.90;;;;;;5038054;28;20025;-74
2023/04/12 01:46:40;;;;;;;6.18;1.65;;;10.40;99.90;;;;;;5037487;28;20075;-74
2023/04/12 01:49:06;;;;;;;4.40;1.25;;;10.30;99.90;;;;;;5037148;28;20025;-74
2023/04/12 01:51:45;;;;;;;4.40;1.30;;;10.30;99.90;;;;;;5037407;28;20048;-74
2023/04/12 01:54:16;;;;;;;7.40;1.40;;;10.30;99.90;;;;;;5037106;28;20029;-74
2023/04/12 01:56:45;;;;;;;6.05;1.42;;;10.30;99.90;;;;;;5037098;28;20075;-74
2023/04/12 01:59:14;;;;;;;4.95;1.92;;;10.40;99.90;;;;;;5037173;28;20025;-74
2023/04/12 02:01:41;;;;;;;5.95;1.17;;;10.40;99.90;;;;;;5036838;28;20095;-74
2023/04/12 02:04:08;;;;;;;5.97;1.63;;;10.40;99.90;;;;;;5036917;28;20116;-74
2023/04/12 02:06:34;;;;;;;4.85;1.20;;;10.40;99.90;;;;;;5037510;28;20025;-74
2023/04/12 02:09:01;;;;;;;4.90;1.08;;;10.50;99.90;;;;;;5036961;28;20045;-74
2023/04/12 02:11:30;;;;;;;8.95;1.30;;;10.50;99.90;;;;;;5037522;28;20080;-74
2023/04/12 02:13:55;;;;;;;9.88;1.20;;;10.60;99.90;;;;;;5036893;28;20021;-74
2023/04/12 02:16:21;;;;;;;4.80;1.17;;;10.50;99.90;;;;;;5037454;28;20025;-74
2023/04/12 02:18:50;;;;;;;6.38;1.35;;;10.60;99.90;;;;;;5037685;28;20022;-74
2023/04/12 02:21:16;;;;;;;4.45;1.20;;;10.60;99.90;;;;;;5037384;28;20024;-74
2023/04/12 02:23:42;;;;;;;2.50;1.10;;;10.60;99.90;;;;;;5037204;28;20029;-74
2023/04/12 02:26:10;;;;;;;4.30;1.05;;;10.60;99.90;;;;;;5036867;28;20025;-74
2023/04/12 02:28:37;;;;;;;12.13;1.33;;;10.60;99.90;;;;;;5037431;28;20048;-75
2023/04/12 02:41:08;;;;;;;3.53;1.08;;;10.60;99.90;;;;;;5037297;28;20036;-74
2023/04/12 02:43:34;;;;;;;9.07;1.80;;;10.50;99.90;;;;;;5037351;28;20025;-74
2023/04/12 02:45:59;;;;;;;4.13;1.00;;;10.40;99.90;;;;;;5036219;28;20025;-74
2023/04/12 02:48:25;;;;;;;2.50;1.20;;;10.40;99.90;;;;;;5036572;28;20116;-74
2023/04/12 02:50:50;;;;;;;5.43;1.20;;;10.40;99.90;;;;;;5036030;28;20037;-74
2023/04/12 02:53:16;;;;;;;6.97;1.17;;;10.40;99.90;;;;;;5037261;28;20025;-74
2023/04/12 02:55:43;;;;;;;5.78;1.23;;;10.30;99.90;;;;;;5036699;28;20049;-74
2023/04/12 02:58:09;;;;;;;2.15;0.85;;;10.30;99.90;;;;;;5037038;28;20075;-74
2023/04/12 03:00:34;;;;;;;7.55;1.45;;;10.20;99.90;;;;;;5036213;28;20022;-74
2023/04/12 03:03:02;;;;;;;4.20;0.90;;;10.20;99.90;;;;;;5036273;28;20029;-74
2023/04/12 03:05:28;;;;;;;4.18;0.80;;;10.30;99.90;;;;;;5036776;28;20029;-74
2023/04/12 03:07:54;;;;;;;10.73;1.65;;;10.30;99.90;;;;;;5036758;28;20026;-74
2023/04/12 03:10:19;;;;;;;10.32;1.30;;;10.30;99.90;;;;;;5036808;28;20021;-74
2023/04/12 03:12:45;;;;;;;5.38;1.25;;;10.20;99.90;;;;;;5036437;28;20164;-74
2023/04/12 03:15:10;;;;;;;3.08;0.68;;;10.20;99.90;;;;;;5036454;28;20029;-74
2023/04/12 03:17:36;;;;;;;6.13;1.05;;;10.10;99.90;;;;;;5036256;28;20026;-74
2023/04/12 03:20:08;;;;;;;3.85;1.42;;;10.00;99.90;;;;;;5036578;28;20044;-74
2023/04/12 03:22:35;;;;;;;2.70;0.90;;;9.90;99.90;;;;;;5036009;28;20025;-74
2023/04/12 03:25:01;;;;;;;5.07;1.73;;;9.90;99.90;;;;;;5037037;28;20022;-74
2023/04/12 03:27:27;;;;;;;7.57;1.20;;;9.90;99.90;;;;;;5035869;28;20057;-75
2023/04/12 03:29:52;;;;;;;7.65;1.10;;;9.80;99.90;;;;;;5036142;28;20060;-74
2023/04/12 03:32:19;;;;;;;6.18;1.35;;;9.80;99.90;;;;;;5035886;28;20036;-74
2023/04/12 03:34:45;;;;;;;5.88;1.58;;;9.80;99.90;;;;;;5036710;28;20018;-74
2023/04/12 03:37:10;;;;;;;7.95;1.60;;;9.60;99.90;;;;;;5036540;28;20030;-74
2023/04/12 03:39:36;;;;;;;5.53;1.45;;;9.50;99.90;;;;;;5035586;28;20121;-80
2023/04/12 03:42:01;;;;;;;4.65;1.50;;;9.50;99.90;;;;;;5036618;28;20036;-80
2023/04/12 03:44:27;;;;;;;6.22;1.67;;;9.50;99.90;;;;;;5035625;28;20026;-81
2023/04/12 03:46:53;;;;;;;7.15;1.83;;;9.50;99.90;;;;;;5036702;28;20025;-80
2023/04/12 03:49:19;;;;;;;4.85;1.40;;;9.50;99.90;;;;;;5036954;28;20025;-80
2023/04/12 03:51:45;;;;;;;9.02;1.45;;;9.40;99.90;;;;;;5035542;28;20108;-80
2023/04/12 03:54:11;;;;;;;6.88;1.83;;;9.30;99.90;;;;;;5035609;28;20049;-80
2023/04/12 03:56:38;;;;;;;3.40;1.75;;;9.30;99.90;;;;;;5036630;28;20049;-80
2023/04/12 03:59:06;;;;;;;4.78;1.45;;;9.20;99.90;;;;;;5039166;28;20060;-78
2023/04/12 04:01:34;;;;;;;12.45;2.40;;;9.10;99.90;;;;;;5040338;28;20026;-78
2023/04/12 04:04:00;;;;;;;4.75;1.77;;;9.00;99.90;;;;;;5040201;28;20022;-78
2023/04/12 04:06:26;;;;;;;8.02;2.13;;;9.10;99.90;;;;;;5039919;28;20017;-78
2023/04/12 04:08:52;;;;;;;6.63;2.30;;;9.10;99.90;;;;;;5040016;28;20018;-78
2023/04/12 04:11:17;;;;;;;6.95;2.60;;;9.10;99.90;;;;;;5039121;28;20030;-78
2023/04/12 04:13:45;;;;;;;4.35;1.90;;;9.10;99.90;;;;;;5039034;28;20032;-78
2023/04/12 04:16:11;;;;;;;8.88;2.60;;;8.90;99.90;;;;;;5038809;28;20033;-78
2023/04/12 04:18:36;;;;;;;6.15;2.67;;;8.80;99.90;;;;;;5038998;28;20037;-78
2023/04/12 04:21:02;;;;;;;9.07;2.58;;;8.70;99.90;;;;;;5039134;28;20026;-79
2023/04/12 04:23:29;;;;;;;9.20;2.45;;;8.80;99.90;;;;;;5039522;28;20030;-78
2023/04/12 04:25:55;;;;;;;6.00;2.30;;;8.70;99.90;;;;;;5039517;28;20045;-78
2023/04/12 04:28:21;;;;;;;7.30;2.75;;;8.70;99.90;;;;;;5039784;28;20064;-78
2023/04/12 04:30:46;;;;;;;4.35;2.50;;;8.70;99.90;;;;;;5039354;28;20113;-78
2023/04/12 04:33:12;;;;;;;6.78;2.42;;;8.80;99.90;;;;;;5039697;28;20037;-79
2023/04/12 04:35:42;;;;;;;5.20;2.03;;;8.70;99.90;;;;;;5038768;28;20025;-78
2023/04/12 04:38:08;;;;;;;6.80;2.50;;;8.70;99.90;;;;;;5039622;28;20061;-78
2023/04/12 04:40:37;;;;;;;6.82;2.72;;;8.60;99.90;;;;;;5038341;28;20038;-78
2023/04/12 04:43:08;;;;;;;9.15;3.20;;;8.70;99.90;;;;;;5038368;28;20079;-78
2023/04/12 04:45:35;;;;;;;6.28;2.95;;;8.70;99.90;;;;;;5038528;28;20023;-78
2023/04/12 04:48:01;;;;;;;12.40;3.70;;;8.70;99.90;;;;;;5038343;28;20029;-78
2023/04/12 04:50:27;;;;;;;8.52;3.88;;;8.70;99.90;;;;;;5039017;28;20044;-78
2023/04/12 04:52:52;;;;;;;9.52;3.92;;;8.80;99.90;;;;;;5038261;28;20025;-79
2023/04/12 04:55:20;;;;;;;7.10;3.00;;;8.80;99.90;;;;;;5038260;28;20034;-78
2023/04/12 04:57:46;;;;;;;6.05;3.40;;;8.80;99.90;;;;;;5038989;28;20029;-78
2023/04/12 05:00:12;;;;;;;7.28;3.70;;;8.80;99.90;;;;;;5038309;28;20052;-78
2023/04/12 05:02:41;;;;;;;5.90;3.20;;;8.70;99.90;;;;;;5038726;28;20078;-78
2023/04/12 05:05:07;;;;;;;7.80;4.10;;;8.60;99.90;;;;;;5038275;28;20068;-78
2023/04/12 05:07:33;;;;;;;9.52;3.80;;;8.40;99.90;;;;;;5037937;28;20021;-78
2023/04/12 05:09:59;;;;;;;7.05;3.30;;;8.40;99.90;;;;;;5038376;28;20041;-78
2023/04/12 05:12:24;;;;;;;10.57;3.17;;;8.40;99.90;;;;;;5038903;28;20021;-78
2023/04/12 05:14:50;;;;;;;5.00;2.30;;;8.40;99.90;;;;;;5037869;28;20048;-78
2023/04/12 05:17:15;;;;;;;7.30;2.95;;;8.50;99.90;;;;;;5037820;28;20072;-78
2023/04/12 05:19:42;;;;;;;10.10;2.97;;;8.50;99.90;;;;;;5037836;28;20025;-77
2023/04/12 05:22:08;;;;;;;7.18;3.22;;;8.50;99.90;;;;;;5037865;28;20030;-77
2023/04/12 05:24:33;;;;;;;12.35;2.80;;;8.50;99.90;;;;;;5038464;28;20022;-77
2023/04/12 05:26:59;;;;;;;4.90;2.92;;;8.40;99.90;;;;;;5038239;28;20041;-77
2023/04/12 05:29:24;;;;;;;6.05;2.72;;;8.40;99.90;;;;;;5037830;28;20088;-77
2023/04/12 05:31:50;;;;;;;4.22;2.90;;;8.40;99.90;;;;;;5038571;28;20179;-77
2023/04/12 05:34:15;;;;;;;6.45;2.40;;;8.40;99.90;;;;;;5038329;28;20045;-77
2023/04/12 05:36:41;;;;;;;6.28;2.55;;;8.50;99.90;;;;;;5038421;28;20040;-77
2023/04/12 05:39:07;;;;;;;6.47;2.97;;;8.60;99.90;;;;;;5037410;28;20076;-77
2023/04/12 05:41:32;;;;;;;6.10;2.50;;;8.60;99.90;;;;;;5038415;28;20037;-77
2023/04/12 05:43:58;;;;;;;3.78;2.75;;;8.60;99.90;;;;;;5037140;28;20017;-76
2023/04/12 05:46:23;;;;;;;11.80;3.35;;;8.40;99.90;;;;;;5037511;28;20017;-76
2023/04/12 05:48:49;;;;;;;6.00;3.35;;;8.30;99.90;;;;;;5037473;28;20025;-76
2023/04/12 05:51:14;;;;;;;6.13;2.85;;;8.30;99.90;;;;;;5037298;28;20026;-76
2023/04/12 05:53:40;;;;;;;5.22;2.38;;;8.30;99.90;;;;;;5037843;28;20025;-76
2023/04/12 05:56:06;;;;;;;5.70;3.00;;;8.20;99.90;;;;;;5037213;28;20025;-76
2023/04/12 05:58:32;;;;;;;6.47;2.60;;;8.20;99.90;;;;;;5037233;28;20026;-76
2023/04/12 06:00:58;;;;;;;5.43;2.45;;;8.30;99.90;;;;;;5036864;28;20033;-75
2023/04/12 06:03:24;;;;;;;5.72;2.55;;;8.30;99.90;;;;;;5037329;28;20025;-75
2023/04/12 06:05:51;;;;;;;7.32;2.20;;;8.30;99.90;;;;;;5037078;28;20021;-75
2023/04/12 06:08:17;;;;;;;6.03;2.70;;;8.30;99.90;;;;;;5037209;28;20044;-76
2023/04/12 06:10:42;;;;;;;6.68;2.72;;;8.20;99.90;;;;;;5036652;28;20022;-75
2023/04/12 06:13:08;;;;;;;5.75;2.70;;;8.10;99.90;;;;;;5037736;28;20048;-75
2023/04/12 06:15:35;;;;;;;3.53;2.55;;;8.10;99.90;;;;;;5036637;28;20057;-75
2023/04/12 06:18:00;;;;;;;4.28;2.75;;;8.10;99.90;;;;;;5037410;28;20026;-75
2023/04/12 06:20:26;;;;;;;7.68;3.05;;;8.00;99.90;;;;;;5036475;28;20029;-75
2023/04/12 06:22:52;;;;;;;7.93;3.47;;;7.90;99.90;;;;;;5036723;28;20033;-75
2023/04/12 06:25:17;;;;;;;4.97;2.58;;;7.90;99.90;;;;;;5036628;28;20017;-75
2023/04/12 06:27:43;;;;;;;8.13;2.00;;;7.90;99.90;;;;;;5036688;28;20101;-75
2023/04/12 06:30:09;;;;;;;4.50;2.08;;;7.90;99.90;;;;;;5036525;28;20032;-74
2023/04/12 06:32:37;;;;;;;2.92;1.98;;;7.90;99.90;;;;;;5037300;28;20061;-75
2023/04/12 06:35:03;;;;;;;3.85;2.08;;;8.00;99.90;;;;;;5036933;28;20063;-75
2023/04/12 06:37:29;;;;;;;5.45;2.38;;;8.00;99.90;;;;;;5036733;28;20102;-76
2023/04/12 06:39:54;;;;;;;4.38;2.20;;;8.10;99.90;;;;;;5036602;28;20066;-75
2023/04/12 06:42:20;;;;;;;4.80;2.40;;;8.10;99.90;;;;;;5036774;28;20032;-75
2023/04/12 06:44:45;;;;;;;5.07;2.60;;;8.20;99.90;;;;;;5036336;28;20021;-76
2023/04/12 06:47:11;;;;;;;3.38;1.83;;;8.20;99.90;;;;;;5036306;28;20053;-77
2023/04/12 06:49:37;;;;;;;3.38;1.73;;;8.10;99.90;;;;;;5036275;28;20021;-74
2023/04/12 06:52:03;;;;;;;3.78;2.42;;;8.20;99.90;;;;;;5036527;28;20053;-74
2023/04/12 06:54:29;;;;;;;5.78;2.58;;;8.20;99.90;;;;;;5036829;28;20079;-74
2023/04/12 06:56:56;;;;;;;5.32;2.80;;;8.20;99.90;;;;;;5036958;28;20025;-73
2023/04/12 06:59:22;;;;;;;4.25;2.25;;;8.10;99.90;;;;;;5036912;28;20056;-72
2023/04/12 07:01:47;;;;;;;3.75;1.98;;;8.20;99.90;;;;;;5036699;28;20064;-73
2023/04/12 07:04:15;;;;;;;4.22;2.45;;;8.20;99.90;;;;;;5028232;28;20113;-72
2023/04/12 07:06:41;;;;;;;3.38;2.17;;;8.20;99.90;;;;;;5017243;28;20018;-74
2023/04/12 07:09:07;;;;;;;4.40;1.95;;;8.20;99.90;;;;;;5016200;28;20049;-73
2023/04/12 07:11:32;;;;;;;3.85;1.88;;;8.20;99.90;;;;;;5016175;28;20022;-73
2023/04/12 07:13:58;;;;;;;5.45;2.47;;;8.10;99.90;;;;;;5016428;28;20032;-73
2023/04/12 07:16:24;;;;;;;3.75;2.20;;;8.00;99.90;;;;;;5016107;28;20026;-73
2023/04/12 07:18:50;;;;;;;4.75;2.60;;;8.00;99.90;;;;;;5016174;28;20034;-73
2023/04/12 07:21:16;;;;;;;6.90;2.45;;;8.00;99.90;;;;;;5015988;28;20026;-73
2023/04/12 07:23:43;;;;;;;4.55;1.73;;;7.90;99.90;;;;;;5016124;28;20021;-73
2023/04/12 07:26:08;;;;;;;6.15;2.65;;;7.90;99.90;;;;;;5016874;28;20021;-72
2023/04/12 07:28:37;;;;;;;3.78;2.47;;;7.90;99.90;;;;;;5016031;28;20022;-71
2023/04/12 07:31:06;;;;;;;7.68;2.58;;;7.90;99.90;;;;;;5016160;28;20041;-71
2023/04/12 07:33:34;;;;;;;6.22;2.30;;;7.80;99.90;;;;;;5019718;28;20026;-71
2023/04/12 07:36:00;;;;;;;7.07;2.72;;;7.70;99.90;;;;;;5019951;28;20026;-72
2023/04/12 07:38:26;;;;;;;5.97;2.40;;;7.70;99.90;;;;;;5019893;28;20022;-72
2023/04/12 07:40:54;;;;;;;6.88;2.70;;;7.70;99.90;;;;;;5019611;28;20048;-75
2023/04/12 07:43:20;;;;;;;7.88;2.75;;;7.70;99.90;;;;;;5020422;28;20030;-73
2023/04/12 07:45:45;;;;;;;4.45;2.63;;;7.70;99.90;;;;;;5020515;28;20104;-73
2023/04/12 07:48:11;;;;;;;7.70;2.78;;;7.70;99.90;;;;;;5019817;28;20025;-73
2023/04/12 07:50:37;;;;;;;4.35;2.20;;;7.70;99.90;;;;;;5020172;28;20029;-73
2023/04/12 07:53:23;;;;;;;3.78;2.03;;;7.70;99.90;;;;;;5019540;28;20032;-72
2023/04/12 07:55:49;;;;;;;5.30;2.15;;;7.70;99.90;;;;;;5019763;28;20034;-72
2023/04/12 07:58:16;;;;;;;4.03;1.73;;;7.70;99.90;;;;;;5020277;28;20061;-74
2023/04/12 08:00:42;;;;;;;4.43;2.03;;;7.70;99.90;;;;;;5019685;28;20033;-73
2023/04/12 08:03:09;;;;;;;5.63;2.38;;;7.60;99.90;;;;;;5019699;28;20075;-72
2023/04/12 08:05:35;;;;;;;3.50;2.13;;;7.70;99.90;;;;;;5019625;28;20125;-72
2023/04/12 08:08:00;;;;;;;3.38;2.45;;;7.60;99.90;;;;;;5020309;28;20041;-73
2023/04/12 08:10:26;;;;;;;4.45;2.53;;;7.70;99.90;;;;;;5019243;28;20022;-72
2023/04/12 08:12:51;;;;;;;9.02;3.35;;;7.80;99.90;;;;;;5019200;28;20030;-73
2023/04/12 08:15:17;;;;;;;3.25;2.03;;;8.00;99.90;;;;;;5020298;28;20037;-73
2023/04/12 08:17:43;;;;;;;7.47;2.58;;;8.00;99.90;;;;;;5019914;28;20026;-73
2023/04/12 08:20:09;;;;;;;3.20;1.80;;;8.00;99.90;;;;;;5019024;28;20022;-74
2023/04/12 08:22:35;;;;;;;5.25;2.40;;;7.90;99.90;;;;;;5019293;28;20076;-73
2023/04/12 08:25:00;;;;;;;4.13;2.20;;;7.90;99.90;;;;;;5020016;28;20026;-73
2023/04/12 08:27:28;;;;;;;4.05;2.45;;;8.00;99.90;;;;;;5019178;28;20025;-72
2023/04/12 08:29:54;;;;;;;5.03;2.35;;;8.00;99.90;;;;;;5018835;28;20029;-74
2023/04/12 08:32:20;;;;;;;4.03;2.20;;;8.00;99.90;;;;;;5019695;28;20116;-73
2023/04/12 08:34:45;;;;;;;2.97;2.10;;;8.00;99.90;;;;;;5019654;28;20080;-73
2023/04/12 08:37:11;;;;;;;3.03;1.90;;;8.00;99.90;;;;;;5019485;28;20018;-74
2023/04/12 08:39:36;;;;;;;6.72;2.10;;;8.00;99.90;;;;;;5018637;28;20056;-72
2023/04/12 08:42:03;;;;;;;1.75;1.63;;;8.00;99.90;;;;;;5018948;28;20097;-74
2023/04/12 08:44:36;;;;;;;4.93;2.30;;;8.00;99.90;;;;;;5017909;28;20030;-72
2023/04/12 08:47:04;;;;;;;2.65;2.45;;;8.10;99.90;;;;;;5018948;28;20113;-71
2023/04/12 08:49:31;;;;;;;3.40;2.10;;;8.10;99.90;;;;;;5018412;28;20029;-71
2023/04/12 08:52:01;;;;;;;5.80;2.90;;;8.10;99.90;;;;;;5022258;28;20025;-70
2023/04/12 08:54:27;;;;;;;12.60;3.08;;;8.20;99.90;;;;;;5028081;28;20018;-70
2023/04/12 08:56:57;;;;;;;3.65;2.80;;;8.20;99.90;;;;;;5018596;28;20026;-73
2023/04/12 08:59:27;;;;;;;6.97;2.63;;;8.30;99.90;;;;;;5018405;28;20029;-72
2023/04/12 09:01:54;;;;;;;5.25;2.95;;;8.40;99.90;;;;;;5018142;28;20033;-73
2023/04/12 09:04:20;;;;;;;3.45;2.55;;;8.40;99.90;;;;;;5018299;28;20120;-72
2023/04/12 09:06:45;;;;;;;4.22;2.55;;;8.40;99.90;;;;;;5018495;28;20053;-74
2023/04/12 09:09:11;;;;;;;3.88;2.08;;;8.30;99.90;;;;;;5018632;28;20029;-74
2023/04/12 09:11:36;;;;;;;5.60;2.40;;;8.40;99.90;;;;;;5019827;28;20096;-74
2023/04/12 09:14:02;;;;;;;3.10;2.22;;;8.40;99.90;;;;;;5018070;28;20022;-73
2023/04/12 09:16:39;;;;;;;9.15;2.33;;;8.40;99.90;;;;;;5017937;28;20076;-68
2023/04/12 09:19:05;;;;;;;7.82;2.88;;;8.40;99.90;;;;;;5018782;28;20029;-68
2023/04/12 09:21:33;;;;;;;4.75;2.60;;;8.40;99.90;;;;;;5017861;28;20025;-68
2023/04/12 09:24:08;;;;;;;3.60;2.28;;;8.40;99.90;;;;;;5018815;28;20052;-69
2023/04/12 09:26:34;;;;;;;5.28;2.78;;;8.40;99.90;;;;;;5018819;28;20025;-69
2023/04/12 09:29:00;;;;;;;3.47;2.70;;;8.50;99.90;;;;;;5018176;28;20120;-69
2023/04/12 09:31:26;;;;;;;4.07;2.50;;;8.50;99.90;;;;;;5017710;28;20108;-69
2023/04/12 09:33:58;;;;;;;4.93;2.80;;;8.50;99.90;;;;;;5018822;28;20128;-73
2023/04/12 09:36:37;;;;;;;4.85;2.40;;;8.50;99.90;;;;;;5018238;28;20104;-73
2023/04/12 09:39:04;;;;;;;4.80;2.60;;;8.50;99.90;;;;;;5017590;28;20056;-73
2023/04/12 09:41:30;;;;;;;5.20;2.58;;;8.60;99.90;;;;;;5017675;28;20041;-75
2023/04/12 09:44:01;;;;;;;2.50;2.03;;;8.60;99.90;;;;;;5017697;28;20056;-73
2023/04/12 09:46:26;;;;;;;3.08;2.40;;;8.60;99.90;;;;;;5017488;28;20088;-74
2023/04/12 09:48:54;;;;;;;4.40;2.65;;;8.70;99.90;;;;;;5028551;28;20029;-75
2023/04/12 09:51:32;;;;;;;7.60;2.60;;;8.70;99.90;;;;;;5038088;28;20032;-74
2023/04/12 09:54:00;;;;;;;6.10;2.40;;;8.80;99.90;;;;;;5038279;28;20067;-74
2023/04/12 09:56:34;;;;;;;4.00;2.38;;;8.70;99.90;;;;;;5036181;28;20030;-74
2023/04/12 09:59:04;;;;;;;5.25;2.60;;;8.80;99.90;;;;;;5038175;28;20025;-74
2023/04/12 10:01:35;;;;;;;7.28;2.60;;;8.80;99.90;;;;;;5037461;28;20060;-74
2023/04/12 10:04:02;;;;;;;3.67;2.20;;;8.80;99.90;;;;;;5037671;28;20029;-74
2023/04/12 10:06:28;;;;;;;3.25;2.55;;;8.70;99.90;;;;;;5038175;28;20030;-74
2023/04/12 10:08:55;;;;;;;5.65;2.03;;;8.70;99.90;;;;;;5036901;28;20028;-74
2023/04/12 10:11:20;;;;;;;4.03;2.00;;;8.60;99.90;;;;;;5037679;28;20057;-73
2023/04/12 10:13:48;;;;;;;6.20;2.50;;;8.60;99.90;;;;;;5036733;28;20064;-73
2023/04/12 10:16:15;;;;;;;3.65;2.05;;;8.70;99.90;;;;;;5037219;28;20026;-73
2023/04/12 10:18:42;;;;;;;3.55;2.22;;;8.80;99.90;;;;;;5037002;28;20029;-73
2023/04/12 10:21:08;;;;;;;6.25;2.85;;;8.80;99.90;;;;;;5036504;28;20022;-73
2023/04/12 10:23:34;;;;;;;5.53;2.25;;;8.80;99.90;;;;;;5037358;28;20029;-73
2023/04/12 10:26:03;;;;;;;6.88;2.63;;;8.70;99.90;;;;;;5036871;28;20048;-73
2023/04/12 10:28:29;;;;;;;3.95;2.90;;;8.80;99.90;;;;;;5036531;28;20025;-73
2023/04/12 10:30:57;;;;;;;4.13;2.30;;;8.80;99.90;;;;;;5036578;28;20044;-74
2023/04/12 10:33:29;;;;;;;5.00;2.70;;;8.90;99.90;;;;;;5036531;28;20021;-73
2023/04/12 10:35:59;;;;;;;3.45;2.65;;;8.90;99.90;;;;;;5036453;28;20112;-73
2023/04/12 10:38:26;;;;;;;2.75;2.30;;;8.90;99.90;;;;;;5037606;28;20025;-74
2023/04/12 10:41:17;;;;;;;5.75;2.88;;;8.90;99.90;;;;;;5036526;28;20033;-74
2023/04/12 10:43:44;;;;;;;3.80;2.75;;;8.90;99.90;;;;;;5036206;28;20032;-74
2023/04/12 10:46:39;;;;;;;4.40;3.15;;;8.90;99.90;;;;;;5036321;28;20025;-74
2023/04/12 10:49:12;;;;;;;6.07;3.10;;;9.10;99.90;;;;;;5034980;28;20033;-75
2023/04/12 10:51:38;;;;;;;7.25;3.47;;;9.20;99.90;;;;;;5037157;28;20018;-74
2023/04/12 10:54:07;;;;;;;4.50;3.22;;;9.30;99.90;;;;;;5036285;28;20116;-74
2023/04/12 10:56:39;;;;;;;5.82;4.28;;;9.40;99.90;;;;;;5037062;28;20056;-75
2023/04/12 10:59:15;;;;;;;8.70;4.28;;;9.50;99.90;;;;;;5037001;28;20108;-77
2023/04/12 11:02:01;;;;;;;10.43;4.30;;;9.70;99.90;;;;;;5036997;28;20068;-74
2023/04/12 11:04:26;;;;;;;6.68;4.10;;;9.80;99.90;;;;;;5036113;28;20060;-75
2023/04/12 11:06:52;;;;;;;4.50;3.65;;;9.80;99.90;;;;;;5039304;28;20025;-79
2023/04/12 11:09:20;;;;;;;5.70;2.80;;;9.90;99.90;;;;;;5042578;28;20024;-76
2023/04/12 11:11:47;;;;;;;4.85;2.67;;;9.80;99.90;;;;;;5042671;28;20029;-75
2023/04/12 11:14:14;;;;;;;3.67;2.60;;;9.80;99.90;;;;;;5042526;28;20025;-75
2023/04/12 11:17:05;;;;;;;4.50;3.60;;;9.80;99.90;;;;;;5043322;28;20056;-75
2023/04/12 11:19:37;;;;;;;7.40;3.55;;;9.80;99.90;;;;;;5042545;28;20031;-75
2023/04/12 11:22:04;;;;;;;4.60;3.47;;;9.80;99.90;;;;;;5042286;28;20080;-76
2023/04/12 11:24:30;;;;;;;5.57;3.20;;;9.90;99.90;;;;;;5042428;28;20021;-76
2023/04/12 11:26:56;;;;;;;6.35;3.33;;;10.00;99.90;;;;;;5042522;28;20018;-75
2023/04/12 11:29:23;;;;;;;5.78;3.97;;;9.90;99.90;;;;;;5042303;28;20112;-76
2023/04/12 11:31:49;;;;;;;4.43;3.00;;;10.00;99.90;;;;;;5042452;28;20026;-76
2023/04/12 11:34:16;;;;;;;5.43;3.75;;;9.90;99.90;;;;;;5042635;28;20029;-76
2023/04/12 11:36:43;;;;;;;7.72;4.15;;;9.90;99.90;;;;;;5042466;28;20022;-75
2023/04/12 11:39:09;;;;;;;6.00;4.20;;;10.00;99.90;;;;;;5043257;28;20124;-76
2023/04/12 11:41:35;;;;;;;8.07;4.05;;;10.10;99.90;;;;;;5044050;28;20057;-78
2023/04/12 11:44:00;;;;;;;6.30;3.85;;;10.10;99.90;;;;;;5042272;28;20104;-77
2023/04/12 11:46:32;;;;;;;9.20;4.35;;;10.00;99.90;;;;;;5043160;28;20018;-78
2023/04/12 11:48:58;;;;;;;6.40;3.92;;;10.10;99.90;;;;;;5043201;28;20029;-77
2023/04/12 11:51:25;;;;;;;5.22;3.95;;;10.10;99.90;;;;;;5042858;28;20017;-78
2023/04/12 11:53:55;;;;;;;7.22;4.93;;;10.10;99.90;;;;;;5042134;28;20029;-75
2023/04/12 11:56:22;;;;;;;7.18;4.28;;;10.20;99.90;;;;;;5042317;28;20022;-75
2023/04/12 11:58:48;;;;;;;10.32;4.80;;;10.20;99.90;;;;;;5042499;28;20049;-75
2023/04/12 12:01:22;;;;;;;10.32;4.78;;;10.20;99.90;;;;;;5042116;28;20026;-75
2023/04/12 12:03:48;;;;;;;9.82;4.57;;;10.30;99.90;;;;;;5042238;28;20029;-75
2023/04/12 12:06:14;;;;;;;7.78;4.72;;;10.40;99.90;;;;;;5042920;28;20026;-75
2023/04/12 12:08:40;;;;;;;6.75;4.28;;;10.40;99.90;;;;;;5042440;28;20025;-76
2023/04/12 12:11:06;;;;;;;6.78;4.32;;;10.50;99.90;;;;;;5042283;28;20028;-76
2023/04/12 12:13:53;;;;;;;11.07;5.10;;;10.60;99.90;;;;;;5042160;28;20029;-76
2023/04/12 12:16:24;;;;;;;10.38;5.45;;;10.60;99.90;;;;;;5042832;28;20027;-77
2023/04/12 12:18:50;;;;;;;11.95;6.05;;;10.70;99.90;;;;;;5039441;28;20033;-76
2023/04/12 12:21:15;;;;;;;16.80;6.47;;;10.80;99.90;;;;;;5038931;28;20083;-78
2023/04/12 12:23:42;;;;;;;6.53;4.28;;;10.90;99.90;;;;;;5038944;28;20056;-77
2023/04/12 12:26:08;;;;;;;5.22;3.78;;;10.90;99.90;;;;;;5039175;28;20022;-77
2023/04/12 12:28:37;;;;;;;6.85;4.10;;;10.90;99.90;;;;;;5039230;28;20018;-77
2023/04/12 12:31:09;;;;;;;6.80;3.90;;;10.90;99.90;;;;;;5038543;28;20017;-77
2023/04/12 12:33:38;;;;;;;;;;;11.00;99.90;;;;;;5039471;28;20049;-77
2023/04/12 12:36:05;;;;;;;5.18;3.30;;;11.10;99.90;;;;;;5038192;28;19905;-76
2023/04/12 12:38:37;;;;;;;5.25;3.40;;;11.20;99.90;;;;;;5039681;28;20029;-76
2023/04/12 12:41:33;;;;;;;5.95;4.00;;;11.10;99.90;;;;;;5058252;28;20068;-74
2023/04/12 12:43:59;;;;;;;6.43;3.53;;;11.00;99.90;;;;;;5021080;28;20041;-80
2023/04/12 12:46:25;;;;;;;8.23;4.10;;;11.00;99.90;;;;;;5009211;28;20029;-82
2023/04/12 12:48:51;;;;;;;10.15;4.47;;;11.00;99.90;;;;;;4999734;28;20088;-77
2023/04/12 12:51:18;;;;;;;6.07;3.92;;;11.10;99.90;;;;;;4982303;28;20030;-78
2023/04/12 12:53:44;;;;;;;6.07;4.07;;;11.10;99.90;;;;;;4982202;28;20030;-78
2023/04/12 12:56:11;;;;;;;6.32;4.53;;;11.20;99.90;;;;;;4982435;28;20028;-76
2023/04/12 12:58:36;;;;;;;7.40;3.40;;;11.30;99.90;;;;;;4981990;28;20026;-76
2023/04/12 13:01:03;;;;;;;6.95;3.95;;;11.20;99.90;;;;;;4992570;28;20037;-76
2023/04/12 13:03:29;;;;;;;5.70;3.67;;;11.30;99.90;;;;;;5001374;28;20037;-75
2023/04/12 13:05:55;;;;;;;7.47;4.47;;;11.30;99.90;;;;;;4991397;28;20029;-74